Flight Track Log - Related Links

Times and Time Zones

All times are in EDT time to prevent confusion due to time zone crossing. See the SKQ45 flight status page for this flight to view local times or setup timezone preferences in your user account.

Time Position Orientation Groundspeed Altitude Reporting Facility
EDT Latitude Longitude Course Direction KTS MPH feet Rate Location/Type
Mon 10:57:34 PM 37.0825 -88.7492 325° Northwest 180 207 2,800  Level Kansas City Center
Mon 10:58:35 PM 37.1153 -88.7867 318° Northwest 167 192 4,500 1,603 Climbing Kansas City Center
Mon 10:59:45 PM 37.1622 -88.8342 321° Northwest 179 206 6,300 1,477 Climbing Memphis Center
Mon 11:00:45 PM 37.1981 -88.8675 323° Northwest 166 191 7,700 1,450 Climbing Memphis Center
Mon 11:01:45 PM 37.2339 -88.9033 321° Northwest 166 191 9,200 789 Climbing Memphis Center
Mon 11:02:00 PM 37.3067 -89.0060 325° Northwest  Level FlightAware Approximate
Mon 11:03:40 PM 37.3119 -88.9703 326° Northwest 200 230 10,000  Level Kansas City Center
Mon 11:04:41 PM 37.3650 -89.0211 323° Northwest 231 266 10,000  Level Kansas City Center
Mon 11:05:42 PM 37.4294 -89.0839 322° Northwest 242 278 10,000 49 Level Kansas City Center
Mon 11:06:43 PM 37.4833 -89.1369 322° Northwest 245 282 10,100 49 Climbing Kansas City Center
Mon 11:07:44 PM 37.5378 -89.1872 324° Northwest 244 281 10,100  Level Kansas City Center
Mon 11:08:45 PM 37.5911 -89.2397 322° Northwest 244 281 10,100  Level Kansas City Center
Mon 11:09:46 PM 37.6450 -89.2911 323° Northwest 244 281 10,100  Level Kansas City Center
Mon 11:10:47 PM 37.6997 -89.3433 323° Northwest 246 283 10,100  Level Kansas City Center
Mon 11:11:48 PM 37.7525 -89.3939 323° Northwest 248 285 10,100  Level Kansas City Center
Mon 11:12:49 PM 37.8075 -89.4461 323° Northwest 248 285 10,100  Level Kansas City Center
Mon 11:13:50 PM 37.8714 -89.5067 323° Northwest 249 287 10,100  Level Kansas City Center
Mon 11:14:52 PM 37.9258 -89.5603 322° Northwest 248 285 10,100  Level Kansas City Center
Mon 11:15:53 PM 37.9808 -89.6125 323° Northwest 247 284 10,100 -148 Level Kansas City Center
Mon 11:16:54 PM 38.0397 -89.6700 322° Northwest 247 284 9,800 -934 Descending Kansas City Center
Mon 11:17:55 PM 38.0975 -89.7261 323° Northwest 261 300 8,200 -1,377 Descending Kansas City Center
Mon 11:18:56 PM 38.1572 -89.7850 322° Northwest 270 311 7,000 -590 Descending Kansas City Center
Mon 11:19:57 PM 38.2100 -89.8361 323° Northwest 239 275 7,000  Level Kansas City Center
Mon 11:20:58 PM 38.2594 -89.8856 322° Northwest 228 262 7,000  Level Kansas City Center
Mon 11:21:59 PM 38.3147 -89.9392 323° Northwest 231 266 7,000  Level Kansas City Center
Mon 11:23:00 PM 38.3653 -89.9889 322° Northwest 230 265 7,000  Level Kansas City Center
Mon 11:24:01 PM 38.4100 -90.0339 322° Northwest 232 267 7,000  Level Kansas City Center
Mon 11:25:02 PM 38.4658 -90.0881 323° Northwest 225 259 7,000  Level Kansas City Center
Mon 11:26:03 PM 38.4992 -90.1467 306° West 211 243 7,000 -49 Level Kansas City Center
Mon 11:27:04 PM 38.5319 -90.2167 301° West 223 257 6,900 -492 Descending Kansas City Center
Mon 11:28:05 PM 38.5758 -90.2828 310° West 236 272 6,000 -689 Descending Kansas City Center
Mon 11:29:06 PM 38.6161 -90.3444 310° West 223 257 5,500 -934 Descending Kansas City Center
Mon 11:30:07 PM 38.6536 -90.4000 311° West 210 242 4,100 -738 Descending Kansas City Center
Mon 11:31:08 PM 38.6867 -90.4414 316° Northwest 206 237 4,000 -49 Descending Kansas City Center
Mon 11:32:09 PM 38.7217 -90.4856 315° West 190 219 4,000 -885 Level Kansas City Center
Mon 11:33:10 PM 38.7725 -90.4728 11° North 200 230 2,200 -1,180 Descending Kansas City Center
Mon 11:34:11 PM 38.7819 -90.4239 76° East 171 197 1,600 -590 Descending Kansas City Center
Mon 11:35:12 PM 38.7639 -90.3889 123° Southeast 135 155 1,000 -492 Descending Kansas City Center
Mon 11:36:13 PM 38.7472 -90.3564 123° Southeast 117 135 600 -393 Descending Kansas City Center

Login

Don't have an account? Register now (free) for customized features, flight alerts, and more!